createdAt,value
2022-12-03T00:01:19.441Z,22.20
2022-12-03T00:06:13.120Z,21.45
2022-12-03T00:11:07.282Z,19.70
2022-12-03T00:16:01.289Z,19.08
2022-12-03T00:30:43.050Z,19.17
2022-12-03T00:35:37.275Z,19.15
2022-12-03T00:40:34.005Z,22.15
2022-12-03T00:45:28.260Z,20.27
2022-12-03T00:50:22.078Z,21.63
2022-12-03T00:55:15.715Z,18.77
2022-12-03T01:05:05.348Z,17.98
2022-12-03T01:10:00.232Z,18.33
2022-12-03T01:14:54.352Z,15.73
2022-12-03T01:19:52.861Z,17.25
2022-12-03T01:24:46.288Z,20.08
2022-12-03T01:34:34.620Z,20.33
2022-12-03T01:39:29.496Z,26.13
2022-12-03T01:44:44.548Z,27.67
2022-12-03T01:49:45.212Z,49.03
2022-12-03T01:54:41.394Z,24.60
2022-12-03T01:59:38.007Z,15.40
2022-12-03T02:04:34.037Z,15.98
2022-12-03T02:09:33.271Z,15.73
2022-12-03T02:14:29.358Z,18.80
2022-12-03T02:19:27.086Z,14.85
2022-12-03T02:24:40.546Z,15.55
2022-12-03T02:29:34.650Z,16.85
2022-12-03T02:34:45.904Z,14.75
2022-12-03T02:39:44.509Z,17.90
2022-12-03T02:44:39.615Z,18.02
2022-12-03T02:49:33.992Z,16.67
2022-12-03T02:54:27.825Z,16.80
2022-12-03T02:59:22.766Z,15.07
2022-12-03T03:04:16.528Z,15.98
2022-12-03T03:09:09.975Z,16.65
2022-12-03T03:14:03.901Z,18.20
2022-12-03T03:18:58.148Z,17.02
2022-12-03T03:23:52.178Z,17.58
2022-12-03T03:28:49.033Z,17.55
2022-12-03T03:33:45.039Z,15.45
2022-12-03T03:38:39.726Z,17.63
2022-12-03T03:43:35.439Z,16.45
2022-12-03T03:48:29.391Z,16.17
2022-12-03T03:53:22.846Z,17.27
2022-12-03T03:58:17.287Z,18.65
2022-12-03T04:03:10.791Z,17.23
2022-12-03T04:08:04.820Z,16.38
2022-12-03T04:12:59.321Z,17.45
2022-12-03T04:18:11.500Z,16.65
2022-12-03T04:23:08.062Z,17.75
2022-12-03T04:28:20.533Z,20.80
2022-12-03T04:33:32.839Z,16.55
2022-12-03T04:38:27.133Z,19.60
2022-12-03T04:43:22.029Z,17.92
2022-12-03T04:48:16.017Z,19.48
2022-12-03T04:53:10.012Z,18.67
2022-12-03T04:58:03.720Z,18.30
2022-12-03T05:02:57.857Z,21.83
2022-12-03T05:07:51.056Z,21.35
2022-12-03T05:22:32.868Z,20.50
2022-12-03T05:27:27.379Z,21.52
2022-12-03T05:32:21.241Z,23.10
2022-12-03T05:37:15.790Z,23.63
2022-12-03T05:42:28.627Z,21.58
2022-12-03T05:47:22.285Z,21.27
2022-12-03T05:52:16.274Z,22.92
2022-12-03T05:57:09.266Z,24.95
2022-12-03T06:02:07.420Z,22.90
2022-12-03T06:07:01.711Z,21.25
2022-12-03T06:11:56.105Z,22.42
2022-12-03T06:16:50.234Z,24.02
2022-12-03T06:26:37.557Z,23.27
2022-12-03T06:31:31.430Z,26.48
2022-12-03T06:36:28.482Z,29.80
2022-12-03T06:41:22.110Z,23.67
2022-12-03T06:51:09.613Z,27.00
2022-12-03T06:56:03.444Z,31.40
2022-12-03T07:00:56.580Z,28.58
2022-12-03T07:05:49.796Z,24.65
2022-12-03T07:15:38.003Z,24.80
2022-12-03T07:20:31.415Z,26.23
2022-12-03T07:30:19.497Z,27.55
2022-12-03T07:35:14.274Z,23.05
2022-12-03T07:40:10.027Z,23.85
2022-12-03T07:45:03.660Z,26.00
2022-12-03T07:49:57.501Z,28.55
2022-12-03T07:54:51.768Z,28.75
2022-12-03T07:59:46.119Z,26.15
2022-12-03T08:04:40.043Z,27.73
2022-12-03T08:14:27.423Z,27.57
2022-12-03T08:19:22.058Z,27.70
2022-12-03T08:24:21.069Z,27.95
2022-12-03T08:29:18.194Z,32.53
2022-12-03T08:34:25.778Z,29.98
2022-12-03T08:39:18.994Z,23.42
2022-12-03T08:49:09.755Z,66.57
2022-12-03T08:54:14.275Z,145.40
2022-12-03T08:59:29.788Z,30.15
2022-12-03T09:04:33.523Z,33.55
2022-12-03T09:14:23.114Z,31.42
2022-12-03T09:19:17.526Z,30.60
2022-12-03T09:24:10.826Z,32.15
2022-12-03T09:29:10.435Z,28.73
2022-12-03T09:34:07.532Z,29.92
2022-12-03T09:39:01.532Z,26.35
2022-12-03T09:44:04.859Z,25.98
2022-12-03T09:48:59.929Z,23.70
2022-12-03T09:53:53.606Z,21.67
2022-12-03T10:03:56.907Z,26.83
2022-12-03T10:08:55.792Z,24.63
2022-12-03T10:13:49.302Z,24.27
2022-12-03T10:23:38.642Z,22.38
2022-12-03T10:28:37.466Z,20.95
2022-12-03T10:33:36.353Z,18.52
2022-12-03T10:38:31.322Z,20.20
2022-12-03T10:43:25.880Z,17.70
2022-12-03T10:48:27.958Z,18.73
2022-12-03T10:53:23.877Z,17.40
2022-12-03T10:58:27.214Z,153.57
2022-12-03T11:03:29.059Z,21.05
2022-12-03T11:08:34.915Z,16.70
2022-12-03T11:13:34.585Z,16.08
2022-12-03T11:18:51.133Z,17.00
2022-12-03T11:23:46.905Z,18.33
2022-12-03T11:29:01.186Z,15.93
2022-12-03T11:34:14.386Z,16.60
2022-12-03T11:39:09.330Z,17.27
2022-12-03T11:44:25.729Z,17.20
2022-12-03T11:49:34.895Z,18.25
2022-12-03T11:54:29.011Z,22.33
2022-12-03T11:59:23.410Z,23.48
2022-12-03T12:04:35.339Z,22.67
2022-12-03T12:09:54.998Z,21.75
2022-12-03T12:14:49.012Z,21.75
2022-12-03T12:19:43.791Z,21.48
2022-12-03T12:24:59.281Z,22.88
2022-12-03T12:30:16.369Z,25.05
2022-12-03T12:35:27.003Z,25.27
2022-12-03T12:40:23.778Z,20.85
2022-12-03T12:45:25.314Z,21.70
2022-12-03T12:50:21.026Z,22.67
2022-12-03T12:55:18.077Z,23.00
2022-12-03T13:00:22.683Z,23.63
2022-12-03T13:05:17.003Z,22.40
2022-12-03T13:10:24.815Z,23.13
2022-12-03T13:15:44.178Z,19.20
2022-12-03T13:20:38.695Z,23.98
2022-12-03T13:25:59.189Z,26.98
2022-12-03T13:30:51.583Z,26.33
2022-12-03T13:35:47.023Z,24.20
2022-12-03T13:40:42.302Z,31.77
2022-12-03T13:45:39.443Z,30.00
2022-12-03T13:51:03.791Z,29.83
2022-12-03T13:56:29.212Z,28.70
2022-12-03T14:01:22.841Z,33.40
2022-12-03T14:06:17.025Z,37.10
2022-12-03T14:11:30.689Z,28.25
2022-12-03T14:16:25.347Z,30.23
2022-12-03T14:21:19.325Z,26.80
2022-12-03T14:26:12.937Z,29.45
2022-12-03T14:40:54.879Z,21.92
2022-12-03T14:45:48.947Z,30.58
2022-12-03T14:50:42.998Z,31.20
2022-12-03T14:55:36.961Z,26.80
2022-12-03T15:00:30.725Z,23.02
2022-12-03T15:05:28.527Z,25.25
2022-12-03T15:10:22.493Z,19.77
2022-12-03T15:15:16.805Z,21.92
2022-12-03T15:20:13.694Z,20.88
2022-12-03T15:25:10.028Z,19.85
2022-12-03T15:30:03.571Z,25.02
2022-12-03T15:39:50.789Z,23.63
2022-12-03T15:44:44.430Z,18.50
2022-12-03T15:49:38.944Z,20.73
2022-12-03T15:54:33.028Z,19.08
2022-12-03T15:59:27.155Z,19.90
2022-12-03T16:04:21.878Z,22.25
2022-12-03T16:09:25.284Z,19.58
2022-12-03T16:14:21.362Z,16.73
2022-12-03T16:19:15.797Z,19.90
2022-12-03T16:24:09.846Z,16.77
2022-12-03T16:29:04.235Z,19.17
2022-12-03T16:33:58.545Z,20.60
2022-12-03T16:38:52.767Z,18.52
2022-12-03T16:43:48.510Z,20.48
2022-12-03T16:48:42.894Z,17.88
2022-12-03T16:53:37.014Z,22.88
2022-12-03T16:58:30.747Z,20.98
2022-12-03T17:08:23.699Z,18.73
2022-12-03T17:13:17.011Z,17.65
2022-12-03T17:18:10.990Z,19.48
2022-12-03T17:23:05.679Z,19.88
2022-12-03T17:27:58.992Z,32.15
2022-12-03T17:32:52.707Z,23.90
2022-12-03T17:37:46.481Z,48.33
2022-12-03T17:42:40.048Z,28.60
2022-12-03T17:47:34.179Z,23.35
2022-12-03T17:57:21.838Z,33.05
2022-12-03T18:02:16.117Z,25.48
2022-12-03T18:07:10.484Z,21.98
2022-12-03T18:12:03.576Z,34.47
2022-12-03T18:16:57.634Z,20.87
2022-12-03T18:21:51.611Z,24.65
2022-12-03T18:26:45.401Z,27.30
2022-12-03T18:31:39.640Z,26.13
2022-12-03T18:36:36.849Z,32.55
2022-12-03T18:41:31.282Z,33.28
2022-12-03T18:46:51.642Z,30.27
2022-12-03T18:51:38.531Z,48.43
2022-12-03T18:56:32.870Z,35.03
2022-12-03T19:01:26.809Z,93.05
2022-12-03T19:06:21.722Z,40.97
2022-12-03T19:11:16.090Z,34.80
2022-12-03T19:16:10.365Z,32.13
2022-12-03T19:21:12.095Z,33.72
2022-12-03T19:26:08.080Z,30.98
2022-12-03T19:31:21.602Z,30.65
2022-12-03T19:36:33.728Z,26.75
2022-12-03T19:41:30.478Z,27.80
2022-12-03T19:46:27.368Z,27.95
2022-12-03T19:51:34.053Z,33.78
2022-12-03T19:56:31.066Z,24.55
2022-12-03T20:01:27.568Z,24.73
2022-12-03T20:06:24.632Z,26.17
2022-12-03T20:12:00.957Z,35.28
2022-12-03T20:17:13.870Z,29.65
2022-12-03T20:22:46.142Z,39.40
2022-12-03T20:27:39.968Z,37.75
2022-12-03T20:32:36.583Z,51.17
2022-12-03T20:37:32.637Z,55.95
2022-12-03T20:42:27.150Z,77.78
2022-12-03T20:47:21.159Z,39.35
2022-12-03T20:57:07.921Z,33.17
2022-12-03T21:02:02.511Z,33.90
2022-12-03T21:06:56.829Z,41.33
2022-12-03T21:11:50.833Z,41.45
2022-12-03T21:22:02.660Z,57.35
2022-12-03T21:31:50.315Z,70.30
2022-12-03T21:36:44.031Z,43.38
2022-12-03T21:41:38.326Z,61.97
2022-12-03T21:47:11.971Z,51.08
2022-12-03T21:51:46.622Z,49.97
2022-12-03T21:56:40.566Z,94.88
2022-12-03T22:01:34.847Z,47.25
2022-12-03T22:06:28.845Z,52.92
2022-12-03T22:11:24.208Z,53.35
2022-12-03T22:16:19.376Z,54.40
2022-12-03T22:21:15.128Z,42.13
2022-12-03T22:26:11.564Z,46.88
2022-12-03T22:31:09.813Z,90.45
2022-12-03T22:36:06.685Z,162.05
2022-12-03T22:41:00.499Z,57.75
2022-12-03T22:45:55.388Z,72.25
2022-12-03T22:50:49.229Z,52.40
2022-12-03T22:55:43.837Z,86.28
2022-12-03T23:00:42.194Z,71.53
2022-12-03T23:05:38.635Z,107.93
2022-12-03T23:10:37.549Z,64.55
2022-12-03T23:15:38.960Z,62.50
2022-12-03T23:20:32.814Z,174.27
2022-12-03T23:25:26.512Z,139.65
2022-12-03T23:30:20.646Z,94.07
2022-12-03T23:35:15.423Z,189.63
2022-12-03T23:40:11.887Z,102.97
2022-12-03T23:45:07.496Z,90.18
2022-12-03T23:50:01.165Z,46.25
2022-12-03T23:54:54.800Z,132.40
